sensor_id;sensor_type;location;lat;lon;timestamp;pressure;altitude;pressure_sealevel;temperature;humidity
74708;BME280;63360;50.104;8.074;2024-01-30T00:00:23;98438.38;;;2.03;100.00
74708;BME280;63360;50.104;8.074;2024-01-30T00:02:49;98439.72;;;2.05;100.00
74708;BME280;63360;50.104;8.074;2024-01-30T00:05:15;98431.44;;;1.92;100.00
74708;BME280;63360;50.104;8.074;2024-01-30T00:07:42;98449.06;;;2.00;100.00
74708;BME280;63360;50.104;8.074;2024-01-30T00:10:09;98421.50;;;1.83;100.00
74708;BME280;63360;50.104;8.074;2024-01-30T00:12:35;98433.47;;;2.01;100.00
74708;BME280;63360;50.104;8.074;2024-01-30T00:15:02;98437.91;;;1.94;100.00
74708;BME280;63360;50.104;8.074;2024-01-30T00:17:30;98441.53;;;1.87;100.00
74708;BME280;63360;50.104;8.074;2024-01-30T00:19:57;98436.16;;;1.76;100.00
74708;BME280;63360;50.104;8.074;2024-01-30T00:22:23;98427.22;;;1.67;100.00
74708;BME280;63360;50.104;8.074;2024-01-30T00:24:50;98437.56;;;1.91;100.00
74708;BME280;63360;50.104;8.074;2024-01-30T00:27:16;98436.72;;;1.78;100.00
74708;BME280;63360;50.104;8.074;2024-01-30T00:29:42;98441.47;;;1.93;100.00
74708;BME280;63360;50.104;8.074;2024-01-30T00:32:09;98435.72;;;1.79;100.00
74708;BME280;63360;50.104;8.074;2024-01-30T00:34:35;98437.56;;;1.91;100.00
74708;BME280;63360;50.104;8.074;2024-01-30T00:37:02;98437.44;;;1.86;100.00
74708;BME280;63360;50.104;8.074;2024-01-30T00:39:28;98436.69;;;1.97;100.00
74708;BME280;63360;50.104;8.074;2024-01-30T00:41:54;98440.38;;;2.01;100.00
74708;BME280;63360;50.104;8.074;2024-01-30T00:44:21;98449.03;;;1.88;100.00
74708;BME280;63360;50.104;8.074;2024-01-30T00:46:47;98448.03;;;1.89;100.00
74708;BME280;63360;50.104;8.074;2024-01-30T00:49:14;98438.72;;;1.76;100.00
74708;BME280;63360;50.104;8.074;2024-01-30T00:51:40;98453.38;;;1.88;100.00
74708;BME280;63360;50.104;8.074;2024-01-30T00:54:06;98439.28;;;1.78;100.00
74708;BME280;63360;50.104;8.074;2024-01-30T00:56:33;98443.38;;;1.68;100.00
74708;BME280;63360;50.104;8.074;2024-01-30T00:58:59;98447.16;;;1.65;100.00
74708;BME280;63360;50.104;8.074;2024-01-30T01:01:26;98444.13;;;1.57;100.00
74708;BME280;63360;50.104;8.074;2024-01-30T01:03:52;98444.44;;;1.60;100.00
74708;BME280;63360;50.104;8.074;2024-01-30T01:06:19;98442.53;;;1.56;100.00
74708;BME280;63360;50.104;8.074;2024-01-30T01:08:45;98440.34;;;1.41;100.00
74708;BME280;63360;50.104;8.074;2024-01-30T01:11:11;98449.31;;;1.50;100.00
74708;BME280;63360;50.104;8.074;2024-01-30T01:13:38;98435.69;;;1.50;100.00
74708;BME280;63360;50.104;8.074;2024-01-30T01:16:04;98440.66;;;1.63;100.00
74708;BME280;63360;50.104;8.074;2024-01-30T01:18:31;98435.13;;;1.48;100.00
74708;BME280;63360;50.104;8.074;2024-01-30T01:20:57;98446.53;;;1.70;100.00
74708;BME280;63360;50.104;8.074;2024-01-30T01:23:24;98443.75;;;1.53;100.00
74708;BME280;63360;50.104;8.074;2024-01-30T01:25:50;98430.56;;;1.50;100.00
74708;BME280;63360;50.104;8.074;2024-01-30T01:28:16;98447.91;;;1.54;100.00
74708;BME280;63360;50.104;8.074;2024-01-30T01:30:43;98441.75;;;1.55;100.00
74708;BME280;63360;50.104;8.074;2024-01-30T01:33:10;98441.09;;;1.60;100.00
74708;BME280;63360;50.104;8.074;2024-01-30T01:35:36;98435.38;;;1.76;100.00
74708;BME280;63360;50.104;8.074;2024-01-30T01:38:03;98432.78;;;1.64;100.00
74708;BME280;63360;50.104;8.074;2024-01-30T01:40:29;98427.22;;;1.49;100.00
74708;BME280;63360;50.104;8.074;2024-01-30T01:42:56;98424.59;;;1.56;100.00
74708;BME280;63360;50.104;8.074;2024-01-30T01:45:22;98436.25;;;1.70;100.00
74708;BME280;63360;50.104;8.074;2024-01-30T01:47:51;98434.63;;;1.75;100.00
74708;BME280;63360;50.104;8.074;2024-01-30T01:50:18;98413.69;;;1.60;100.00
74708;BME280;63360;50.104;8.074;2024-01-30T01:52:50;98428.41;;;1.83;100.00
74708;BME280;63360;50.104;8.074;2024-01-30T01:55:17;98433.47;;;1.71;100.00
74708;BME280;63360;50.104;8.074;2024-01-30T01:57:47;98422.41;;;1.71;100.00
74708;BME280;63360;50.104;8.074;2024-01-30T02:00:14;98418.31;;;1.70;100.00
74708;BME280;63360;50.104;8.074;2024-01-30T02:02:43;98432.47;;;1.72;100.00
74708;BME280;63360;50.104;8.074;2024-01-30T02:05:09;98412.81;;;1.66;100.00
74708;BME280;63360;50.104;8.074;2024-01-30T02:07:36;98423.75;;;1.62;100.00
74708;BME280;63360;50.104;8.074;2024-01-30T02:10:04;98411.66;;;1.62;100.00
74708;BME280;63360;50.104;8.074;2024-01-30T02:12:30;98420.50;;;1.66;100.00
74708;BME280;63360;50.104;8.074;2024-01-30T02:14:57;98420.56;;;1.78;100.00
74708;BME280;63360;50.104;8.074;2024-01-30T02:17:23;98421.50;;;1.83;100.00
74708;BME280;63360;50.104;8.074;2024-01-30T02:19:50;98422.84;;;1.86;100.00
74708;BME280;63360;50.104;8.074;2024-01-30T02:22:16;98413.44;;;1.80;100.00
74708;BME280;63360;50.104;8.074;2024-01-30T02:24:44;98412.66;;;1.79;100.00
74708;BME280;63360;50.104;8.074;2024-01-30T02:27:10;98415.25;;;1.91;100.00
74708;BME280;63360;50.104;8.074;2024-01-30T02:29:37;98410.34;;;1.90;100.00
74708;BME280;63360;50.104;8.074;2024-01-30T02:32:04;98425.03;;;1.82;100.00
74708;BME280;63360;50.104;8.074;2024-01-30T02:34:30;98427.19;;;1.86;100.00
74708;BME280;63360;50.104;8.074;2024-01-30T02:36:57;98418.81;;;1.90;100.00
74708;BME280;63360;50.104;8.074;2024-01-30T02:39:23;98414.25;;;1.92;100.00
74708;BME280;63360;50.104;8.074;2024-01-30T02:41:50;98404.09;;;1.86;100.00
74708;BME280;63360;50.104;8.074;2024-01-30T02:44:17;98419.34;;;1.80;100.00
74708;BME280;63360;50.104;8.074;2024-01-30T02:46:43;98413.59;;;1.67;100.00
74708;BME280;63360;50.104;8.074;2024-01-30T02:49:09;98402.78;;;1.65;100.00
74708;BME280;63360;50.104;8.074;2024-01-30T02:51:36;98417.59;;;1.63;100.00
74708;BME280;63360;50.104;8.074;2024-01-30T02:54:02;98401.28;;;1.57;100.00
74708;BME280;63360;50.104;8.074;2024-01-30T02:56:29;98409.28;;;1.49;100.00
74708;BME280;63360;50.104;8.074;2024-01-30T02:58:55;98407.16;;;1.46;100.00
74708;BME280;63360;50.104;8.074;2024-01-30T03:01:21;98413.78;;;1.54;100.00
74708;BME280;63360;50.104;8.074;2024-01-30T03:03:48;98405.19;;;1.60;100.00
74708;BME280;63360;50.104;8.074;2024-01-30T03:06:14;98400.16;;;1.53;100.00
74708;BME280;63360;50.104;8.074;2024-01-30T03:08:43;98397.38;;;1.55;100.00
74708;BME280;63360;50.104;8.074;2024-01-30T03:11:10;98404.22;;;1.61;100.00
74708;BME280;63360;50.104;8.074;2024-01-30T03:13:36;98391.81;;;1.58;100.00
74708;BME280;63360;50.104;8.074;2024-01-30T03:16:02;98398.72;;;1.57;100.00
74708;BME280;63360;50.104;8.074;2024-01-30T03:18:29;98399.75;;;1.56;100.00
74708;BME280;63360;50.104;8.074;2024-01-30T03:20:55;98406.50;;;1.51;100.00
74708;BME280;63360;50.104;8.074;2024-01-30T03:23:22;98406.56;;;1.44;100.00
74708;BME280;63360;50.104;8.074;2024-01-30T03:25:48;98396.47;;;1.31;100.00
74708;BME280;63360;50.104;8.074;2024-01-30T03:28:14;98390.22;;;1.27;100.00
74708;BME280;63360;50.104;8.074;2024-01-30T03:30:41;98397.03;;;1.33;100.00
74708;BME280;63360;50.104;8.074;2024-01-30T03:33:07;98393.78;;;1.26;100.00
74708;BME280;63360;50.104;8.074;2024-01-30T03:35:34;98407.81;;;1.23;100.00
74708;BME280;63360;50.104;8.074;2024-01-30T03:38:00;98400.34;;;1.22;100.00
74708;BME280;63360;50.104;8.074;2024-01-30T03:40:27;98399.94;;;1.25;100.00
74708;BME280;63360;50.104;8.074;2024-01-30T03:42:53;98398.25;;;1.31;100.00
74708;BME280;63360;50.104;8.074;2024-01-30T03:45:20;98406.81;;;1.25;100.00
74708;BME280;63360;50.104;8.074;2024-01-30T03:47:46;98400.13;;;1.23;100.00
74708;BME280;63360;50.104;8.074;2024-01-30T03:50:12;98385.47;;;1.12;100.00
74708;BME280;63360;50.104;8.074;2024-01-30T03:52:39;98392.59;;;1.10;100.00
74708;BME280;63360;50.104;8.074;2024-01-30T03:55:05;98389.09;;;1.05;100.00
74708;BME280;63360;50.104;8.074;2024-01-30T03:57:32;98394.09;;;1.00;100.00
74708;BME280;63360;50.104;8.074;2024-01-30T03:59:58;98396.88;;;0.98;100.00
74708;BME280;63360;50.104;8.074;2024-01-30T04:02:28;98387.09;;;1.07;100.00
74708;BME280;63360;50.104;8.074;2024-01-30T04:04:54;98403.41;;;1.12;100.00
74708;BME280;63360;50.104;8.074;2024-01-30T04:07:21;98393.44;;;1.04;100.00
74708;BME280;63360;50.104;8.074;2024-01-30T04:09:50;98399.16;;;1.06;100.00
74708;BME280;63360;50.104;8.074;2024-01-30T04:12:16;98397.47;;;1.12;100.00
74708;BME280;63360;50.104;8.074;2024-01-30T04:14:43;98390.03;;;1.10;100.00
74708;BME280;63360;50.104;8.074;2024-01-30T04:17:10;98378.28;;;1.03;100.00
74708;BME280;63360;50.104;8.074;2024-01-30T04:19:40;98395.22;;;1.04;100.00
74708;BME280;63360;50.104;8.074;2024-01-30T04:22:07;98379.34;;;0.95;100.00
74708;BME280;63360;50.104;8.074;2024-01-30T04:24:33;98375.59;;;0.98;100.00
74708;BME280;63360;50.104;8.074;2024-01-30T04:27:00;98393.78;;;1.08;100.00
74708;BME280;63360;50.104;8.074;2024-01-30T04:29:26;98398.78;;;1.03;100.00
74708;BME280;63360;50.104;8.074;2024-01-30T04:31:52;98397.63;;;0.99;100.00
74708;BME280;63360;50.104;8.074;2024-01-30T04:34:19;98392.50;;;0.99;100.00
74708;BME280;63360;50.104;8.074;2024-01-30T04:36:45;98389.66;;;0.89;100.00
74708;BME280;63360;50.104;8.074;2024-01-30T04:39:12;98388.69;;;0.90;100.00
74708;BME280;63360;50.104;8.074;2024-01-30T04:41:39;98389.47;;;0.90;100.00
74708;BME280;63360;50.104;8.074;2024-01-30T04:44:06;98388.72;;;0.83;100.00
74708;BME280;63360;50.104;8.074;2024-01-30T04:46:33;98395.84;;;0.99;100.00
74708;BME280;63360;50.104;8.074;2024-01-30T04:49:00;98389.25;;;0.92;100.00
74708;BME280;63360;50.104;8.074;2024-01-30T04:51:27;98396.69;;;0.93;100.00
74708;BME280;63360;50.104;8.074;2024-01-30T04:53:53;98384.63;;;0.82;100.00
74708;BME280;63360;50.104;8.074;2024-01-30T04:56:19;98391.16;;;0.96;100.00
74708;BME280;63360;50.104;8.074;2024-01-30T04:58:46;98394.63;;;0.84;100.00
74708;BME280;63360;50.104;8.074;2024-01-30T05:01:16;98380.53;;;0.75;100.00
74708;BME280;63360;50.104;8.074;2024-01-30T05:03:43;98392.06;;;0.84;100.00
74708;BME280;63360;50.104;8.074;2024-01-30T05:06:09;98396.06;;;0.80;100.00
74708;BME280;63360;50.104;8.074;2024-01-30T05:08:36;98386.09;;;0.72;100.00
74708;BME280;63360;50.104;8.074;2024-01-30T05:11:05;98397.88;;;0.73;100.00
74708;BME280;63360;50.104;8.074;2024-01-30T05:13:31;98387.19;;;0.82;100.00
74708;BME280;63360;50.104;8.074;2024-01-30T05:15:58;98394.00;;;0.88;100.00
74708;BME280;63360;50.104;8.074;2024-01-30T05:18:24;98404.31;;;0.82;100.00
74708;BME280;63360;50.104;8.074;2024-01-30T05:20:51;98408.28;;;0.78;100.00
74708;BME280;63360;50.104;8.074;2024-01-30T05:23:17;98398.69;;;0.73;100.00
74708;BME280;63360;50.104;8.074;2024-01-30T05:25:44;98397.09;;;0.72;100.00
74708;BME280;63360;50.104;8.074;2024-01-30T05:28:10;98391.63;;;0.69;100.00
74708;BME280;63360;50.104;8.074;2024-01-30T05:30:37;98401.38;;;0.78;100.00
74708;BME280;63360;50.104;8.074;2024-01-30T05:33:03;98396.91;;;0.74;100.00
74708;BME280;63360;50.104;8.074;2024-01-30T05:35:30;98387.72;;;0.66;100.00
74708;BME280;63360;50.104;8.074;2024-01-30T05:37:56;98399.31;;;0.69;100.00
74708;BME280;63360;50.104;8.074;2024-01-30T05:40:23;98391.69;;;0.62;100.00
74708;BME280;63360;50.104;8.074;2024-01-30T05:42:49;98400.81;;;0.76;100.00
74708;BME280;63360;50.104;8.074;2024-01-30T05:45:16;98400.69;;;0.71;100.00
74708;BME280;63360;50.104;8.074;2024-01-30T05:47:42;98403.44;;;0.70;100.00
74708;BME280;63360;50.104;8.074;2024-01-30T05:50:09;98397.97;;;0.66;100.00
74708;BME280;63360;50.104;8.074;2024-01-30T05:52:35;98399.88;;;0.71;100.00
74708;BME280;63360;50.104;8.074;2024-01-30T05:55:02;98397.09;;;0.72;100.00
74708;BME280;63360;50.104;8.074;2024-01-30T05:57:29;98387.13;;;0.64;100.00
74708;BME280;63360;50.104;8.074;2024-01-30T05:59:56;98387.09;;;0.71;100.00
74708;BME280;63360;50.104;8.074;2024-01-30T06:02:22;98393.13;;;0.76;100.00
74708;BME280;63360;50.104;8.074;2024-01-30T06:04:48;98387.47;;;0.74;100.00
74708;BME280;63360;50.104;8.074;2024-01-30T06:07:15;98398.25;;;0.76;100.00
74708;BME280;63360;50.104;8.074;2024-01-30T06:09:41;98403.16;;;0.78;100.00
74708;BME280;63360;50.104;8.074;2024-01-30T06:12:08;98389.78;;;0.76;100.00
74708;BME280;63360;50.104;8.074;2024-01-30T06:14:34;98385.09;;;0.73;100.00
74708;BME280;63360;50.104;8.074;2024-01-30T06:17:01;98395.06;;;0.81;100.00
74708;BME280;63360;50.104;8.074;2024-01-30T06:19:27;98393.13;;;0.76;100.00
74708;BME280;63360;50.104;8.074;2024-01-30T06:21:54;98395.84;;;0.81;100.00
74708;BME280;63360;50.104;8.074;2024-01-30T06:24:20;98402.28;;;0.90;100.00
74708;BME280;63360;50.104;8.074;2024-01-30T06:26:47;98394.50;;;0.79;100.00
74708;BME280;63360;50.104;8.074;2024-01-30T06:29:13;98387.22;;;0.76;100.00
74708;BME280;63360;50.104;8.074;2024-01-30T06:31:44;98398.19;;;0.83;100.00
74708;BME280;63360;50.104;8.074;2024-01-30T06:34:10;98395.47;;;0.78;100.00
74708;BME280;63360;50.104;8.074;2024-01-30T06:36:38;98398.00;;;0.84;100.00
74708;BME280;63360;50.104;8.074;2024-01-30T06:39:04;98400.75;;;0.83;100.00
74708;BME280;63360;50.104;8.074;2024-01-30T06:41:31;98402.75;;;0.81;100.00
74708;BME280;63360;50.104;8.074;2024-01-30T06:43:58;98394.88;;;0.82;100.00
74708;BME280;63360;50.104;8.074;2024-01-30T06:46:24;98393.34;;;0.75;100.00
74708;BME280;63360;50.104;8.074;2024-01-30T06:48:51;98389.38;;;0.79;100.00
74708;BME280;63360;50.104;8.074;2024-01-30T06:51:17;98384.91;;;0.74;100.00
74708;BME280;63360;50.104;8.074;2024-01-30T06:53:44;98399.13;;;0.88;100.00
74708;BME280;63360;50.104;8.074;2024-01-30T06:56:10;98391.09;;;0.85;100.00
74708;BME280;63360;50.104;8.074;2024-01-30T06:58:37;98401.25;;;1.09;100.00
74708;BME280;63360;50.104;8.074;2024-01-30T07:01:03;98402.00;;;1.16;100.00
74708;BME280;63360;50.104;8.074;2024-01-30T07:03:30;98410.94;;;1.07;100.00
74708;BME280;63360;50.104;8.074;2024-01-30T07:05:56;98409.69;;;1.16;100.00
74708;BME280;63360;50.104;8.074;2024-01-30T07:08:23;98406.75;;;1.13;100.00
74708;BME280;63360;50.104;8.074;2024-01-30T07:10:49;98409.69;;;1.16;100.00
74708;BME280;63360;50.104;8.074;2024-01-30T07:13:16;98395.41;;;1.20;100.00
74708;BME280;63360;50.104;8.074;2024-01-30T07:15:43;98408.44;;;1.37;100.00
74708;BME280;63360;50.104;8.074;2024-01-30T07:18:09;98401.47;;;1.26;100.00
74708;BME280;63360;50.104;8.074;2024-01-30T07:20:36;98396.47;;;1.31;100.00
74708;BME280;63360;50.104;8.074;2024-01-30T07:23:02;98392.44;;;1.23;100.00
74708;BME280;63360;50.104;8.074;2024-01-30T07:25:29;98398.25;;;1.31;100.00
74708;BME280;63360;50.104;8.074;2024-01-30T07:27:56;98401.31;;;1.39;100.00
74708;BME280;63360;50.104;8.074;2024-01-30T07:30:23;98413.94;;;1.41;100.00
74708;BME280;63360;50.104;8.074;2024-01-30T07:32:50;98404.59;;;1.46;100.00
74708;BME280;63360;50.104;8.074;2024-01-30T07:35:16;98391.28;;;1.38;100.00
74708;BME280;63360;50.104;8.074;2024-01-30T07:37:43;98391.16;;;1.33;100.00
74708;BME280;63360;50.104;8.074;2024-01-30T07:40:09;98413.28;;;1.45;100.00
74708;BME280;63360;50.104;8.074;2024-01-30T07:42:36;98401.03;;;1.47;100.00
74708;BME280;63360;50.104;8.074;2024-01-30T07:45:02;98411.91;;;1.61;100.00
74708;BME280;63360;50.104;8.074;2024-01-30T07:47:29;98410.00;;;1.56;100.00
74708;BME280;63360;50.104;8.074;2024-01-30T07:49:55;98410.44;;;1.53;100.00
74708;BME280;63360;50.104;8.074;2024-01-30T07:52:22;98424.94;;;1.59;100.00
74708;BME280;63360;50.104;8.074;2024-01-30T07:54:49;98435.91;;;1.66;100.00
74708;BME280;63360;50.104;8.074;2024-01-30T07:57:16;98426.19;;;1.68;100.00
74708;BME280;63360;50.104;8.074;2024-01-30T07:59:44;98432.59;;;1.77;100.00
74708;BME280;63360;50.104;8.074;2024-01-30T08:02:12;98429.06;;;1.90;100.00
74708;BME280;63360;50.104;8.074;2024-01-30T08:04:39;98420.59;;;1.90;100.00
74708;BME280;63360;50.104;8.074;2024-01-30T08:07:05;98425.41;;;1.98;100.00
74708;BME280;63360;50.104;8.074;2024-01-30T08:09:32;98421.88;;;1.99;100.00
74708;BME280;63360;50.104;8.074;2024-01-30T08:11:58;98432.50;;;2.14;100.00
74708;BME280;63360;50.104;8.074;2024-01-30T08:14:25;98424.81;;;2.25;100.00
74708;BME280;63360;50.104;8.074;2024-01-30T08:16:52;98427.06;;;2.33;100.00
74708;BME280;63360;50.104;8.074;2024-01-30T08:19:18;98428.78;;;2.51;100.00
74708;BME280;63360;50.104;8.074;2024-01-30T08:21:45;98431.44;;;2.56;100.00
74708;BME280;63360;50.104;8.074;2024-01-30T08:24:11;98433.69;;;2.64;100.00
74708;BME280;63360;50.104;8.074;2024-01-30T08:26:38;98428.13;;;2.67;100.00
74708;BME280;63360;50.104;8.074;2024-01-30T08:29:04;98423.22;;;2.66;100.00
74708;BME280;63360;50.104;8.074;2024-01-30T08:31:31;98414.72;;;2.65;100.00
74708;BME280;63360;50.104;8.074;2024-01-30T08:33:57;98419.19;;;2.70;100.00
74708;BME280;63360;50.104;8.074;2024-01-30T08:36:25;98420.63;;;2.77;100.00
74708;BME280;63360;50.104;8.074;2024-01-30T08:38:51;98408.09;;;2.69;100.00
74708;BME280;63360;50.104;8.074;2024-01-30T08:41:21;98424.09;;;2.83;100.00
74708;BME280;63360;50.104;8.074;2024-01-30T08:43:47;98432.00;;;2.93;100.00
74708;BME280;63360;50.104;8.074;2024-01-30T08:46:17;98422.75;;;2.92;100.00
74708;BME280;63360;50.104;8.074;2024-01-30T08:48:44;98420.50;;;2.95;100.00
74708;BME280;63360;50.104;8.074;2024-01-30T08:51:10;98430.78;;;3.19;100.00
74708;BME280;63360;50.104;8.074;2024-01-30T08:53:37;98443.59;;;3.30;100.00
74708;BME280;63360;50.104;8.074;2024-01-30T08:56:04;98433.97;;;3.37;100.00
74708;BME280;63360;50.104;8.074;2024-01-30T08:58:31;98425.13;;;3.45;100.00
74708;BME280;63360;50.104;8.074;2024-01-30T09:00:57;98441.00;;;3.53;100.00
74708;BME280;63360;50.104;8.074;2024-01-30T09:03:24;98437.97;;;3.56;100.00
74708;BME280;63360;50.104;8.074;2024-01-30T09:05:51;98433.03;;;3.55;100.00
74708;BME280;63360;50.104;8.074;2024-01-30T09:08:17;98426.44;;;3.59;100.00
74708;BME280;63360;50.104;8.074;2024-01-30T09:10:44;98443.94;;;3.74;100.00
74708;BME280;63360;50.104;8.074;2024-01-30T09:13:11;98444.81;;;3.79;100.00
74708;BME280;63360;50.104;8.074;2024-01-30T09:15:37;98444.19;;;3.89;100.00
74708;BME280;63360;50.104;8.074;2024-01-30T09:18:04;98440.50;;;3.96;100.00
74708;BME280;63360;50.104;8.074;2024-01-30T09:20:30;98437.75;;;4.03;100.00
74708;BME280;63360;50.104;8.074;2024-01-30T09:23:00;98444.56;;;4.09;100.00
74708;BME280;63360;50.104;8.074;2024-01-30T09:25:26;98456.91;;;4.07;100.00
74708;BME280;63360;50.104;8.074;2024-01-30T09:27:53;98441.53;;;4.12;100.00
74708;BME280;63360;50.104;8.074;2024-01-30T09:30:19;98461.53;;;4.21;100.00
74708;BME280;63360;50.104;8.074;2024-01-30T09:32:45;98447.94;;;4.26;100.00
74708;BME280;63360;50.104;8.074;2024-01-30T09:35:12;98451.00;;;4.40;100.00
74708;BME280;63360;50.104;8.074;2024-01-30T09:37:38;98451.00;;;4.40;100.00
74708;BME280;63360;50.104;8.074;2024-01-30T09:40:06;98446.31;;;4.37;100.00
74708;BME280;63360;50.104;8.074;2024-01-30T09:42:34;98451.25;;;4.38;100.00
74708;BME280;63360;50.104;8.074;2024-01-30T09:45:05;98448.22;;;4.41;100.00
74708;BME280;63360;50.104;8.074;2024-01-30T09:47:43;98453.97;;;4.48;100.00
74708;BME280;63360;50.104;8.074;2024-01-30T09:50:11;98455.09;;;4.52;100.00
74708;BME280;63360;50.104;8.074;2024-01-30T09:52:38;98451.72;;;4.52;100.00
74708;BME280;63360;50.104;8.074;2024-01-30T09:55:06;98434.56;;;4.57;100.00
74708;BME280;63360;50.104;8.074;2024-01-30T09:57:34;98446.16;;;4.76;100.00
74708;BME280;63360;50.104;8.074;2024-01-30T10:00:01;98450.16;;;4.84;100.00
74708;BME280;63360;50.104;8.074;2024-01-30T10:02:27;98441.22;;;4.92;100.00
74708;BME280;63360;50.104;8.074;2024-01-30T10:04:53;98442.69;;;5.04;100.00
74708;BME280;63360;50.104;8.074;2024-01-30T10:07:20;98449.53;;;5.15;100.00
74708;BME280;63360;50.104;8.074;2024-01-30T10:09:47;98451.78;;;5.28;100.00
74708;BME280;63360;50.104;8.074;2024-01-30T10:12:13;98443.31;;;5.33;100.00
74708;BME280;63360;50.104;8.074;2024-01-30T10:14:40;98440.63;;;5.44;100.00
74708;BME280;63360;50.104;8.074;2024-01-30T10:17:10;98438.47;;;5.58;100.00
74708;BME280;63360;50.104;8.074;2024-01-30T10:19:49;98455.03;;;5.62;100.00
74708;BME280;63360;50.104;8.074;2024-01-30T10:22:17;98460.97;;;5.63;100.00
74708;BME280;63360;50.104;8.074;2024-01-30T10:24:43;98438.22;;;5.60;100.00
74708;BME280;63360;50.104;8.074;2024-01-30T10:27:11;98431.66;;;5.74;100.00
74708;BME280;63360;50.104;8.074;2024-01-30T10:29:37;98432.19;;;5.76;100.00
74708;BME280;63360;50.104;8.074;2024-01-30T10:32:04;98444.75;;;5.89;100.00
74708;BME280;63360;50.104;8.074;2024-01-30T10:34:32;98444.31;;;5.97;100.00
74708;BME280;63360;50.104;8.074;2024-01-30T10:37:09;98454.53;;;6.08;100.00
74708;BME280;63360;50.104;8.074;2024-01-30T10:39:43;98444.53;;;6.17;100.00
74708;BME280;63360;50.104;8.074;2024-01-30T10:42:15;98425.84;;;6.10;100.00
74708;BME280;63360;50.104;8.074;2024-01-30T10:44:57;98437.59;;;6.23;100.00
74708;BME280;63360;50.104;8.074;2024-01-30T10:47:27;98446.00;;;6.40;100.00
74708;BME280;63360;50.104;8.074;2024-01-30T10:49:55;98435.34;;;6.31;100.00
74708;BME280;63360;50.104;8.074;2024-01-30T10:52:23;98446.75;;;6.35;100.00
74708;BME280;63360;50.104;8.074;2024-01-30T10:54:54;98425.78;;;6.32;100.00
74708;BME280;63360;50.104;8.074;2024-01-30T10:57:25;98444.28;;;6.50;100.00
74708;BME280;63360;50.104;8.074;2024-01-30T10:59:57;98442.81;;;6.59;100.00
74708;BME280;63360;50.104;8.074;2024-01-30T11:02:25;98431.19;;;6.62;100.00
74708;BME280;63360;50.104;8.074;2024-01-30T11:04:57;98434.16;;;6.81;100.00
74708;BME280;63360;50.104;8.074;2024-01-30T11:07:27;98429.31;;;6.89;100.00
74708;BME280;63360;50.104;8.074;2024-01-30T11:12:33;98423.63;;;6.92;100.00
74708;BME280;63360;50.104;8.074;2024-01-30T11:20:21;98424.13;;;6.89;100.00
74708;BME280;63360;50.104;8.074;2024-01-30T11:22:51;98419.34;;;6.71;100.00
74708;BME280;63360;50.104;8.074;2024-01-30T11:25:22;98411.59;;;6.71;100.00
74708;BME280;63360;50.104;8.074;2024-01-30T11:27:50;98415.75;;;6.72;100.00
74708;BME280;63360;50.104;8.074;2024-01-30T11:30:28;98407.19;;;6.66;100.00
74708;BME280;63360;50.104;8.074;2024-01-30T11:33:14;98407.50;;;6.75;100.00
74708;BME280;63360;50.104;8.074;2024-01-30T11:35:42;98417.91;;;6.90;100.00
74708;BME280;63360;50.104;8.074;2024-01-30T11:38:10;98415.34;;;6.90;100.00
74708;BME280;63360;50.104;8.074;2024-01-30T11:40:38;98430.88;;;6.95;100.00
74708;BME280;63360;50.104;8.074;2024-01-30T11:43:06;98419.03;;;6.99;100.00
74708;BME280;63360;50.104;8.074;2024-01-30T11:45:34;98423.22;;;7.10;100.00
74708;BME280;63360;50.104;8.074;2024-01-30T11:48:02;98421.25;;;7.38;100.00
74708;BME280;63360;50.104;8.074;2024-01-30T11:50:33;98419.22;;;7.45;100.00
74708;BME280;63360;50.104;8.074;2024-01-30T11:53:00;98424.75;;;7.68;100.00
74708;BME280;63360;50.104;8.074;2024-01-30T11:55:29;98414.13;;;7.70;100.00
74708;BME280;63360;50.104;8.074;2024-01-30T11:58:00;98425.06;;;8.02;100.00
74708;BME280;63360;50.104;8.074;2024-01-30T12:00:26;98415.50;;;8.13;100.00
74708;BME280;63360;50.104;8.074;2024-01-30T12:02:54;98417.06;;;8.24;100.00
74708;BME280;63360;50.104;8.074;2024-01-30T12:05:25;98420.19;;;8.31;100.00
74708;BME280;63360;50.104;8.074;2024-01-30T12:07:53;98410.34;;;8.28;100.00
74708;BME280;63360;50.104;8.074;2024-01-30T12:10:20;98406.22;;;8.27;100.00
74708;BME280;63360;50.104;8.074;2024-01-30T12:12:48;98401.00;;;8.37;100.00
74708;BME280;63360;50.104;8.074;2024-01-30T12:15:16;98404.41;;;8.32;100.00
74708;BME280;63360;50.104;8.074;2024-01-30T12:17:43;98397.34;;;8.18;100.00
74708;BME280;63360;50.104;8.074;2024-01-30T12:20:14;98407.97;;;8.16;100.00
74708;BME280;63360;50.104;8.074;2024-01-30T12:22:46;98397.34;;;8.03;100.00
74708;BME280;63360;50.104;8.074;2024-01-30T12:25:15;98404.59;;;7.96;100.00
74708;BME280;63360;50.104;8.074;2024-01-30T12:27:43;98398.63;;;7.85;100.00
74708;BME280;63360;50.104;8.074;2024-01-30T12:30:11;98392.41;;;7.86;100.00
74708;BME280;63360;50.104;8.074;2024-01-30T12:32:42;98398.13;;;8.03;100.00
74708;BME280;63360;50.104;8.074;2024-01-30T12:35:13;98390.31;;;7.93;100.00
74708;BME280;63360;50.104;8.074;2024-01-30T12:37:41;98392.94;;;7.98;100.00
74708;BME280;63360;50.104;8.074;2024-01-30T12:40:09;98395.25;;;8.05;100.00
74708;BME280;63360;50.104;8.074;2024-01-30T12:42:36;98399.41;;;8.01;100.00
74708;BME280;63360;50.104;8.074;2024-01-30T12:45:03;98382.03;;;7.91;100.00
74708;BME280;63360;50.104;8.074;2024-01-30T12:47:30;98369.59;;;7.88;100.00
74708;BME280;63360;50.104;8.074;2024-01-30T12:49:57;98381.25;;;7.90;100.00
74708;BME280;63360;50.104;8.074;2024-01-30T12:52:24;98373.75;;;7.94;100.00
74708;BME280;63360;50.104;8.074;2024-01-30T12:54:51;98374.53;;;7.89;100.00
74708;BME280;63360;50.104;8.074;2024-01-30T12:57:18;98386.97;;;7.87;100.00
74708;BME280;63360;50.104;8.074;2024-01-30T12:59:45;98381.53;;;7.84;100.00
74708;BME280;63360;50.104;8.074;2024-01-30T13:02:15;98377.63;;;7.76;100.00
74708;BME280;63360;50.104;8.074;2024-01-30T13:04:42;98384.88;;;7.79;100.00
74708;BME280;63360;50.104;8.074;2024-01-30T13:07:10;98375.03;;;7.76;100.00